createdAt,value
2022-11-16T04:46:00.024Z,27.65
2022-11-16T04:49:04.003Z,21.17
2022-11-16T04:52:07.033Z,23.33
2022-11-16T04:55:10.345Z,20.60
2022-11-16T04:58:13.220Z,27.90
2022-11-16T05:04:19.047Z,16.95
2022-11-16T05:07:23.338Z,22.40
2022-11-16T05:16:33.708Z,25.40
2022-11-16T05:19:55.212Z,25.77
2022-11-16T05:22:58.605Z,31.40
2022-11-16T05:26:01.952Z,24.50
2022-11-16T05:29:04.901Z,22.15
2022-11-16T05:35:11.115Z,36.90
2022-11-16T05:41:17.098Z,35.90
2022-11-16T05:44:20.221Z,23.35
2022-11-16T05:47:22.873Z,25.45
2022-11-16T05:50:25.738Z,26.20
2022-11-16T05:53:35.349Z,28.67
2022-11-16T05:56:38.557Z,25.83
2022-11-16T05:59:41.298Z,27.17
2022-11-16T06:02:44.107Z,24.50
2022-11-16T06:05:48.790Z,24.92
2022-11-16T06:08:51.788Z,24.98
2022-11-16T06:11:55.918Z,30.08
2022-11-16T06:14:58.535Z,27.20
2022-11-16T06:18:04.522Z,26.55
2022-11-16T06:21:08.339Z,26.75
2022-11-16T06:24:11.223Z,27.83
2022-11-16T06:27:13.764Z,28.55
2022-11-16T06:30:17.923Z,30.62
2022-11-16T06:33:20.603Z,29.50
2022-11-16T06:36:23.515Z,21.17
2022-11-16T06:39:26.197Z,27.70
2022-11-16T06:42:29.155Z,27.55
2022-11-16T06:45:32.670Z,29.52
2022-11-16T06:48:36.666Z,23.85
2022-11-16T06:51:41.197Z,37.83
2022-11-16T06:54:44.294Z,25.40
2022-11-16T07:03:53.804Z,30.25
2022-11-16T07:06:57.189Z,26.83
2022-11-16T07:10:03.296Z,29.42
2022-11-16T07:13:06.625Z,32.65
2022-11-16T07:16:11.614Z,31.27
2022-11-16T07:19:14.649Z,25.92
2022-11-16T07:22:18.438Z,33.97
2022-11-16T07:25:21.876Z,32.83
2022-11-16T07:28:24.614Z,30.37
2022-11-16T07:31:28.476Z,32.58
2022-11-16T07:34:41.218Z,26.67
2022-11-16T07:37:44.294Z,35.63
2022-11-16T07:40:47.561Z,25.10
2022-11-16T07:43:53.388Z,32.97
2022-11-16T07:47:01.106Z,28.52
2022-11-16T07:50:06.359Z,31.58
2022-11-16T07:53:09.727Z,27.17
2022-11-16T07:56:14.769Z,36.22
2022-11-16T07:59:18.899Z,30.10
2022-11-16T08:02:22.047Z,26.42
2022-11-16T08:05:25.303Z,28.58
2022-11-16T08:08:27.958Z,29.65
2022-11-16T08:11:31.043Z,30.37
2022-11-16T08:14:33.711Z,33.00
2022-11-16T08:17:37.025Z,27.90
2022-11-16T08:20:40.173Z,24.63
2022-11-16T08:26:48.153Z,25.85
2022-11-16T08:29:51.178Z,34.55
2022-11-16T08:32:53.768Z,31.20
2022-11-16T08:36:17.320Z,30.10
2022-11-16T08:42:23.296Z,28.00
2022-11-16T08:45:25.876Z,29.48
2022-11-16T08:48:29.331Z,24.20
2022-11-16T08:51:33.765Z,25.70
2022-11-16T08:54:41.354Z,28.27
2022-11-16T09:32:03.860Z,26.05
2022-11-16T09:35:07.032Z,31.80
2022-11-16T09:38:10.074Z,27.80
2022-11-16T09:41:16.012Z,30.77
2022-11-16T09:44:33.757Z,27.58
2022-11-16T09:47:49.850Z,31.30
2022-11-16T09:51:08.225Z,28.70
2022-11-16T09:54:16.821Z,25.62
2022-11-16T09:57:25.111Z,25.98
2022-11-16T10:00:30.870Z,29.95
2022-11-16T10:03:41.280Z,32.00
2022-11-16T10:07:13.063Z,26.30
2022-11-16T10:10:18.115Z,25.42
2022-11-16T10:14:04.384Z,29.77
2022-11-16T10:17:32.288Z,27.23
2022-11-16T10:21:09.656Z,28.52
2022-11-16T10:24:18.690Z,32.88
2022-11-16T10:27:39.459Z,24.55
2022-11-16T10:31:08.251Z,28.90
2022-11-16T10:34:19.977Z,28.62
2022-11-16T10:37:29.597Z,24.58
2022-11-16T10:40:39.857Z,25.37
2022-11-16T10:43:43.529Z,27.48
2022-11-16T10:46:57.062Z,23.80
2022-11-16T10:50:08.758Z,26.27
2022-11-16T10:53:16.098Z,23.35
2022-11-16T10:56:31.911Z,24.25
2022-11-16T10:59:46.719Z,23.75
2022-11-16T11:02:50.222Z,29.87
2022-11-16T11:05:53.784Z,24.00
2022-11-16T11:09:15.848Z,23.38
2022-11-16T11:12:38.529Z,23.73
2022-11-16T11:15:42.834Z,28.50
2022-11-16T11:18:45.943Z,25.00
2022-11-16T11:21:49.304Z,28.83
2022-11-16T11:24:52.260Z,24.92
2022-11-16T11:31:27.383Z,22.20
2022-11-16T11:34:34.864Z,22.80
2022-11-16T11:37:39.428Z,21.87
2022-11-16T11:40:57.553Z,22.62
2022-11-16T11:44:18.367Z,21.77
2022-11-16T11:51:26.071Z,18.52
2022-11-16T11:54:35.892Z,23.52
2022-11-16T11:57:42.437Z,23.38
2022-11-16T12:00:54.199Z,21.58
2022-11-16T12:04:34.899Z,20.00
2022-11-16T12:07:59.344Z,24.42
2022-11-16T12:11:48.656Z,22.58
2022-11-16T12:15:15.869Z,25.05
2022-11-16T12:18:30.663Z,22.92
2022-11-16T12:21:56.536Z,30.12
2022-11-16T12:25:25.198Z,17.80
2022-11-16T12:28:51.859Z,24.95
2022-11-16T12:32:29.662Z,19.52
2022-11-16T12:35:47.289Z,20.25
2022-11-16T12:39:05.014Z,19.65
2022-11-16T12:42:40.454Z,20.00
2022-11-16T12:46:07.947Z,19.35
2022-11-16T12:49:13.802Z,22.17
2022-11-16T12:52:22.644Z,20.02
2022-11-16T12:55:43.425Z,16.23
2022-11-16T12:59:06.365Z,23.33
2022-11-16T13:02:27.544Z,19.45
2022-11-16T13:05:42.500Z,18.73
2022-11-16T13:08:54.440Z,16.52
2022-11-16T13:12:14.047Z,21.05
2022-11-16T13:15:20.516Z,17.45
2022-11-16T13:18:25.298Z,19.00
2022-11-16T13:21:49.578Z,19.70
2022-11-16T13:24:52.332Z,17.62
2022-11-16T13:28:06.564Z,17.00
2022-11-16T13:31:32.046Z,20.65
2022-11-16T13:34:39.015Z,15.32
2022-11-16T13:37:50.810Z,15.80
2022-11-16T13:40:53.372Z,17.23
2022-11-16T13:43:56.618Z,19.92
2022-11-16T13:47:22.755Z,14.32
2022-11-16T13:50:37.255Z,15.10
2022-11-16T13:57:25.755Z,15.52
2022-11-16T14:00:33.557Z,15.43
2022-11-16T14:03:38.753Z,14.05
2022-11-16T14:06:44.199Z,14.90
2022-11-16T14:09:49.251Z,16.95
2022-11-16T14:12:53.731Z,14.00
2022-11-16T14:16:20.005Z,15.65
2022-11-16T14:19:52.049Z,13.75
2022-11-16T14:23:12.995Z,14.45
2022-11-16T14:26:41.055Z,12.32
2022-11-16T14:30:21.162Z,13.27
2022-11-16T14:33:36.572Z,14.52
2022-11-16T14:36:45.318Z,13.65
2022-11-16T14:39:50.401Z,15.15
2022-11-16T14:43:16.045Z,13.93
2022-11-16T14:46:26.955Z,12.35
2022-11-16T14:49:35.740Z,11.63
2022-11-16T14:52:43.854Z,14.60
2022-11-16T14:55:46.766Z,13.10
2022-11-16T14:58:53.803Z,14.50
2022-11-16T15:01:58.382Z,18.52
2022-11-16T15:05:01.425Z,17.95
2022-11-16T15:08:15.703Z,16.87
2022-11-16T15:11:48.601Z,18.45
2022-11-16T15:14:54.759Z,15.52
2022-11-16T15:18:00.229Z,15.77
2022-11-16T15:21:03.039Z,13.25
2022-11-16T15:24:29.294Z,15.43
2022-11-16T15:27:34.947Z,14.27
2022-11-16T15:30:40.332Z,14.23
2022-11-16T15:33:45.458Z,12.37
2022-11-16T15:36:48.834Z,12.65
2022-11-16T15:39:52.003Z,15.20
2022-11-16T15:42:55.714Z,12.13
2022-11-16T15:45:59.669Z,13.60
2022-11-16T15:49:02.891Z,16.35
2022-11-16T15:52:05.848Z,11.98
2022-11-16T15:55:40.684Z,15.55
2022-11-16T15:58:44.224Z,11.88
2022-11-16T16:04:49.903Z,11.70
2022-11-16T16:07:52.371Z,12.02
2022-11-16T16:11:01.018Z,12.88
2022-11-16T16:14:04.505Z,13.07
2022-11-16T16:17:10.317Z,15.20
2022-11-16T16:20:21.782Z,12.73
2022-11-16T16:23:25.599Z,13.43
2022-11-16T16:26:28.086Z,19.05
2022-11-16T16:29:30.810Z,13.20
2022-11-16T16:32:36.959Z,11.90
2022-11-16T16:35:39.739Z,14.55
2022-11-16T16:41:45.698Z,12.30
